sensor_id;sensor_type;location;lat;lon;timestamp;pressure;altitude;pressure_sealevel;temperature;humidity
8286;BME280;4181;43.416;24.598;2024-02-26T00:01:24;99560.91;;;12.29;100.00
8286;BME280;4181;43.416;24.598;2024-02-26T00:03:55;99567.75;;;12.36;100.00
8286;BME280;4181;43.416;24.598;2024-02-26T00:06:28;99576.22;;;12.45;100.00
8286;BME280;4181;43.416;24.598;2024-02-26T00:08:58;99574.00;;;12.47;100.00
8286;BME280;4181;43.416;24.598;2024-02-26T00:11:28;99573.72;;;12.43;100.00
8286;BME280;4181;43.416;24.598;2024-02-26T00:14:03;99577.56;;;12.42;100.00
8286;BME280;4181;43.416;24.598;2024-02-26T00:16:29;99584.66;;;12.38;100.00
8286;BME280;4181;43.416;24.598;2024-02-26T00:18:55;99580.84;;;12.39;100.00
8286;BME280;4181;43.416;24.598;2024-02-26T00:21:26;99568.56;;;12.17;100.00
8286;BME280;4181;43.416;24.598;2024-02-26T00:23:54;99581.44;;;11.81;100.00
8286;BME280;4181;43.416;24.598;2024-02-26T00:26:21;99566.88;;;11.45;100.00
8286;BME280;4181;43.416;24.598;2024-02-26T00:28:52;99551.59;;;11.44;100.00
8286;BME280;4181;43.416;24.598;2024-02-26T00:31:21;99549.97;;;11.59;100.00
8286;BME280;4181;43.416;24.598;2024-02-26T00:33:50;99548.31;;;11.52;100.00
8286;BME280;4181;43.416;24.598;2024-02-26T00:36:27;99535.22;;;11.49;100.00
8286;BME280;4181;43.416;24.598;2024-02-26T00:39:02;99543.97;;;11.57;100.00
8286;BME280;4181;43.416;24.598;2024-02-26T00:41:29;99552.69;;;11.53;100.00
8286;BME280;4181;43.416;24.598;2024-02-26T00:44:00;99562.53;;;11.55;100.00
8286;BME280;4181;43.416;24.598;2024-02-26T00:46:31;99548.56;;;11.36;100.00
8286;BME280;4181;43.416;24.598;2024-02-26T00:49:03;99535.19;;;11.29;100.00
8286;BME280;4181;43.416;24.598;2024-02-26T00:51:38;99529.19;;;11.42;100.00
8286;BME280;4181;43.416;24.598;2024-02-26T00:54:13;99528.94;;;11.54;100.00
8286;BME280;4181;43.416;24.598;2024-02-26T00:56:42;99523.22;;;11.66;100.00
8286;BME280;4181;43.416;24.598;2024-02-26T00:59:10;99521.59;;;11.80;100.00
8286;BME280;4181;43.416;24.598;2024-02-26T01:01:43;99516.13;;;11.80;100.00
8286;BME280;4181;43.416;24.598;2024-02-26T01:04:16;99515.03;;;11.91;100.00
8286;BME280;4181;43.416;24.598;2024-02-26T01:09:30;99533.00;;;11.21;100.00
8286;BME280;4181;43.416;24.598;2024-02-26T01:12:02;99522.03;;;11.06;100.00
8286;BME280;4181;43.416;24.598;2024-02-26T01:14:40;99522.78;;;10.87;100.00
8286;BME280;4181;43.416;24.598;2024-02-26T01:17:16;99521.16;;;10.91;100.00
8286;BME280;4181;43.416;24.598;2024-02-26T01:19:47;99505.63;;;10.96;100.00
8286;BME280;4181;43.416;24.598;2024-02-26T01:22:27;99501.56;;;11.09;100.00
8286;BME280;4181;43.416;24.598;2024-02-26T01:25:04;99507.88;;;11.19;100.00
8286;BME280;4181;43.416;24.598;2024-02-26T01:27:31;99509.78;;;11.39;100.00
8286;BME280;4181;43.416;24.598;2024-02-26T01:30:12;99520.44;;;11.40;100.00
8286;BME280;4181;43.416;24.598;2024-02-26T01:32:50;99529.44;;;11.21;100.00
8286;BME280;4181;43.416;24.598;2024-02-26T01:38:10;99519.34;;;11.26;100.00
8286;BME280;4181;43.416;24.598;2024-02-26T01:40:47;99521.81;;;11.28;100.00
8286;BME280;4181;43.416;24.598;2024-02-26T01:46:13;99520.88;;;10.92;100.00
8286;BME280;4181;43.416;24.598;2024-02-26T01:48:46;99502.25;;;10.69;100.00
8286;BME280;4181;43.416;24.598;2024-02-26T01:51:17;99507.81;;;10.94;100.00
8286;BME280;4181;43.416;24.598;2024-02-26T01:53:47;99504.53;;;11.02;100.00
8286;BME280;4181;43.416;24.598;2024-02-26T01:56:17;99503.72;;;11.07;100.00
8286;BME280;4181;43.416;24.598;2024-02-26T01:58:58;99518.50;;;11.21;100.00
8286;BME280;4181;43.416;24.598;2024-02-26T02:01:30;99523.41;;;11.09;100.00
8286;BME280;4181;43.416;24.598;2024-02-26T02:04:01;99517.94;;;11.09;100.00
8286;BME280;4181;43.416;24.598;2024-02-26T02:06:27;99523.69;;;11.12;100.00
8286;BME280;4181;43.416;24.598;2024-02-26T02:08:56;99515.19;;;10.99;100.00
8286;BME280;4181;43.416;24.598;2024-02-26T02:11:41;99523.34;;;10.89;100.00
8286;BME280;4181;43.416;24.598;2024-02-26T02:14:19;99506.69;;;10.95;100.00
8286;BME280;4181;43.416;24.598;2024-02-26T02:16:56;99519.53;;;10.95;100.00
8286;BME280;4181;43.416;24.598;2024-02-26T02:19:26;99512.97;;;10.86;100.00
8286;BME280;4181;43.416;24.598;2024-02-26T02:21:54;99507.78;;;10.84;100.00
8286;BME280;4181;43.416;24.598;2024-02-26T02:24:27;99509.44;;;11.00;100.00
8286;BME280;4181;43.416;24.598;2024-02-26T02:26:58;99516.25;;;10.88;100.00
8286;BME280;4181;43.416;24.598;2024-02-26T02:29:27;99518.69;;;10.84;100.00
8286;BME280;4181;43.416;24.598;2024-02-26T02:31:57;99514.91;;;11.00;100.00
8286;BME280;4181;43.416;24.598;2024-02-26T02:34:29;99503.19;;;11.10;100.00
8286;BME280;4181;43.416;24.598;2024-02-26T02:37:04;99504.59;;;11.22;100.00
8286;BME280;4181;43.416;24.598;2024-02-26T02:39:32;99506.22;;;11.23;100.00
8286;BME280;4181;43.416;24.598;2024-02-26T02:42:32;99539.25;;;11.17;100.00
8286;BME280;4181;43.416;24.598;2024-02-26T02:45:06;99542.81;;;11.17;100.00
8286;BME280;4181;43.416;24.598;2024-02-26T02:47:36;99538.72;;;11.25;100.00
8286;BME280;4181;43.416;24.598;2024-02-26T02:50:06;99536.25;;;11.28;100.00
8286;BME280;4181;43.416;24.598;2024-02-26T02:52:38;99537.09;;;11.29;100.00
8286;BME280;4181;43.416;24.598;2024-02-26T02:55:16;99550.19;;;11.22;100.00
8286;BME280;4181;43.416;24.598;2024-02-26T02:57:52;99546.88;;;11.20;100.00
8286;BME280;4181;43.416;24.598;2024-02-26T03:00:22;99545.00;;;11.25;100.00
8286;BME280;4181;43.416;24.598;2024-02-26T03:02:51;99552.31;;;11.10;100.00
8286;BME280;4181;43.416;24.598;2024-02-26T03:07:55;99550.41;;;11.05;100.00
8286;BME280;4181;43.416;24.598;2024-02-26T03:10:21;99540.06;;;11.12;100.00
8286;BME280;4181;43.416;24.598;2024-02-26T03:12:53;99552.06;;;11.06;100.00
8286;BME280;4181;43.416;24.598;2024-02-26T03:15:21;99554.22;;;11.04;100.00
8286;BME280;4181;43.416;24.598;2024-02-26T03:17:54;99548.25;;;11.12;100.00
8286;BME280;4181;43.416;24.598;2024-02-26T03:20:28;99550.44;;;11.15;100.00
8286;BME280;4181;43.416;24.598;2024-02-26T03:22:58;99555.34;;;11.13;100.00
8286;BME280;4181;43.416;24.598;2024-02-26T03:25:24;99545.19;;;10.99;100.00
8286;BME280;4181;43.416;24.598;2024-02-26T03:27:54;99539.47;;;10.95;100.00
8286;BME280;4181;43.416;24.598;2024-02-26T03:30:26;99554.78;;;11.06;100.00
8286;BME280;4181;43.416;24.598;2024-02-26T03:32:59;99550.13;;;11.07;100.00
8286;BME280;4181;43.416;24.598;2024-02-26T03:35:29;99554.53;;;11.13;100.00
8286;BME280;4181;43.416;24.598;2024-02-26T03:37:58;99556.97;;;11.09;100.00
8286;BME280;4181;43.416;24.598;2024-02-26T03:40:30;99567.91;;;11.14;100.00
8286;BME280;4181;43.416;24.598;2024-02-26T03:43:03;99571.03;;;10.71;100.00
8286;BME280;4181;43.416;24.598;2024-02-26T03:45:32;99576.41;;;10.56;100.00
8286;BME280;4181;43.416;24.598;2024-02-26T03:48:07;99553.84;;;10.24;100.00
8286;BME280;4181;43.416;24.598;2024-02-26T03:50:42;99549.06;;;10.46;100.00
8286;BME280;4181;43.416;24.598;2024-02-26T03:53:15;99525.13;;;10.63;100.00
8286;BME280;4181;43.416;24.598;2024-02-26T03:55:47;99527.38;;;10.71;100.00
8286;BME280;4181;43.416;24.598;2024-02-26T03:58:23;99518.09;;;10.72;100.00
8286;BME280;4181;43.416;24.598;2024-02-26T04:00:56;99520.59;;;10.84;100.00
8286;BME280;4181;43.416;24.598;2024-02-26T04:03:28;99519.00;;;10.98;100.00
8286;BME280;4181;43.416;24.598;2024-02-26T04:06:10;99512.75;;;11.07;100.00
8286;BME280;4181;43.416;24.598;2024-02-26T04:08:45;99511.09;;;11.01;100.00
8286;BME280;4181;43.416;24.598;2024-02-26T04:11:19;99490.31;;;10.85;100.00
8286;BME280;4181;43.416;24.598;2024-02-26T04:13:54;99509.19;;;11.07;100.00
8286;BME280;4181;43.416;24.598;2024-02-26T04:16:29;99517.66;;;11.05;100.00
8286;BME280;4181;43.416;24.598;2024-02-26T04:19:18;99519.28;;;10.96;100.00
8286;BME280;4181;43.416;24.598;2024-02-26T04:21:52;99522.50;;;10.88;100.00
8286;BME280;4181;43.416;24.598;2024-02-26T04:24:18;99528.47;;;10.80;100.00
8286;BME280;4181;43.416;24.598;2024-02-26T04:26:44;99521.41;;;10.79;100.00
8286;BME280;4181;43.416;24.598;2024-02-26T04:29:19;99500.06;;;10.61;100.00
8286;BME280;4181;43.416;24.598;2024-02-26T04:31:47;99473.50;;;10.47;100.00
8286;BME280;4181;43.416;24.598;2024-02-26T04:34:19;99481.25;;;10.65;100.00
8286;BME280;4181;43.416;24.598;2024-02-26T04:36:45;99476.91;;;10.74;100.00
8286;BME280;4181;43.416;24.598;2024-02-26T04:39:11;99473.63;;;10.77;100.00
8286;BME280;4181;43.416;24.598;2024-02-26T04:41:38;99469.56;;;10.79;100.00
8286;BME280;4181;43.416;24.598;2024-02-26T04:44:05;99494.06;;;10.64;100.00
8286;BME280;4181;43.416;24.598;2024-02-26T04:46:31;99502.19;;;10.54;100.00
8286;BME280;4181;43.416;24.598;2024-02-26T04:49:04;99503.34;;;10.73;100.00
8286;BME280;4181;43.416;24.598;2024-02-26T04:51:40;99500.53;;;10.48;100.00
8286;BME280;4181;43.416;24.598;2024-02-26T04:54:07;99492.88;;;10.45;100.00
8286;BME280;4181;43.416;24.598;2024-02-26T04:56:37;99496.09;;;10.32;100.00
8286;BME280;4181;43.416;24.598;2024-02-26T04:59:06;99498.22;;;10.25;100.00
8286;BME280;4181;43.416;24.598;2024-02-26T05:01:32;99484.13;;;10.43;100.00
8286;BME280;4181;43.416;24.598;2024-02-26T05:03:59;99492.97;;;10.65;100.00
8286;BME280;4181;43.416;24.598;2024-02-26T05:06:24;99488.09;;;10.72;100.00
8286;BME280;4181;43.416;24.598;2024-02-26T05:08:53;99498.47;;;10.80;100.00
8286;BME280;4181;43.416;24.598;2024-02-26T05:11:27;99505.56;;;10.71;100.00
8286;BME280;4181;43.416;24.598;2024-02-26T05:13:58;99502.56;;;10.73;100.00
8286;BME280;4181;43.416;24.598;2024-02-26T05:16:28;99494.13;;;10.79;100.00
8286;BME280;4181;43.416;24.598;2024-02-26T05:18:57;99513.75;;;10.76;100.00
8286;BME280;4181;43.416;24.598;2024-02-26T05:21:27;99507.19;;;10.72;100.00
8286;BME280;4181;43.416;24.598;2024-02-26T05:23:57;99518.63;;;10.64;100.00
8286;BME280;4181;43.416;24.598;2024-02-26T05:26:27;99518.66;;;10.79;100.00
8286;BME280;4181;43.416;24.598;2024-02-26T05:28:59;99499.84;;;10.83;100.00
8286;BME280;4181;43.416;24.598;2024-02-26T05:31:31;99519.53;;;10.95;100.00
8286;BME280;4181;43.416;24.598;2024-02-26T05:34:02;99518.41;;;10.81;100.00
8286;BME280;4181;43.416;24.598;2024-02-26T05:36:36;99519.13;;;10.56;100.00
8286;BME280;4181;43.416;24.598;2024-02-26T05:39:04;99512.38;;;10.17;100.00
8286;BME280;4181;43.416;24.598;2024-02-26T05:41:36;99496.59;;;10.24;100.00
8286;BME280;4181;43.416;24.598;2024-02-26T05:44:03;99506.50;;;10.40;100.00
8286;BME280;4181;43.416;24.598;2024-02-26T05:46:33;99514.22;;;10.63;100.00
8286;BME280;4181;43.416;24.598;2024-02-26T05:49:03;99500.59;;;10.68;100.00
8286;BME280;4181;43.416;24.598;2024-02-26T05:51:32;99500.94;;;10.82;100.00
8286;BME280;4181;43.416;24.598;2024-02-26T05:53:58;99507.25;;;10.92;100.00
8286;BME280;4181;43.416;24.598;2024-02-26T05:56:26;99499.38;;;11.11;100.00
8286;BME280;4181;43.416;24.598;2024-02-26T05:58:55;99504.56;;;11.17;100.00
8286;BME280;4181;43.416;24.598;2024-02-26T06:01:24;99505.94;;;11.20;100.00
8286;BME280;4181;43.416;24.598;2024-02-26T06:03:58;99528.34;;;10.50;100.00
8286;BME280;4181;43.416;24.598;2024-02-26T06:06:32;99507.44;;;10.66;100.00
8286;BME280;4181;43.416;24.598;2024-02-26T06:09:00;99510.09;;;10.51;100.00
8286;BME280;4181;43.416;24.598;2024-02-26T06:11:33;99513.97;;;10.65;100.00
8286;BME280;4181;43.416;24.598;2024-02-26T06:14:04;99516.78;;;10.85;100.00
8286;BME280;4181;43.416;24.598;2024-02-26T06:16:35;99516.00;;;10.99;100.00
8286;BME280;4181;43.416;24.598;2024-02-26T06:19:09;99526.41;;;11.17;100.00
8286;BME280;4181;43.416;24.598;2024-02-26T06:21:40;99529.72;;;11.29;100.00
8286;BME280;4181;43.416;24.598;2024-02-26T06:24:06;99526.47;;;11.37;100.00
8286;BME280;4181;43.416;24.598;2024-02-26T06:26:33;99535.22;;;11.49;100.00
8286;BME280;4181;43.416;24.598;2024-02-26T06:29:02;99524.03;;;11.61;100.00
8286;BME280;4181;43.416;24.598;2024-02-26T06:31:32;99525.41;;;11.74;100.00
8286;BME280;4181;43.416;24.598;2024-02-26T06:34:02;99517.47;;;11.82;100.00
8286;BME280;4181;43.416;24.598;2024-02-26T06:36:51;99525.69;;;11.77;100.00
8286;BME280;4181;43.416;24.598;2024-02-26T06:39:20;99545.09;;;11.71;100.00
8286;BME280;4181;43.416;24.598;2024-02-26T06:42:04;99551.06;;;11.63;100.00
8286;BME280;4181;43.416;24.598;2024-02-26T06:44:41;99548.06;;;11.54;100.00
8286;BME280;4181;43.416;24.598;2024-02-26T06:47:12;99534.38;;;11.44;100.00
8286;BME280;4181;43.416;24.598;2024-02-26T06:49:39;99551.34;;;11.61;100.00
8286;BME280;4181;43.416;24.598;2024-02-26T06:52:12;99554.13;;;11.76;100.00
8286;BME280;4181;43.416;24.598;2024-02-26T06:54:44;99556.56;;;11.88;100.00
8286;BME280;4181;43.416;24.598;2024-02-26T06:57:18;99551.38;;;12.06;100.00
8286;BME280;4181;43.416;24.598;2024-02-26T06:59:53;99554.91;;;12.17;100.00
8286;BME280;4181;43.416;24.598;2024-02-26T07:02:27;99566.91;;;12.31;100.00
8286;BME280;4181;43.416;24.598;2024-02-26T07:05:00;99558.41;;;12.42;100.00
8286;BME280;4181;43.416;24.598;2024-02-26T07:07:30;99559.75;;;12.55;100.00
8286;BME280;4181;43.416;24.598;2024-02-26T07:10:06;99565.25;;;12.45;100.00
8286;BME280;4181;43.416;24.598;2024-02-26T07:12:40;99555.41;;;12.39;100.00
8286;BME280;4181;43.416;24.598;2024-02-26T07:17:47;99564.09;;;12.66;100.00
8286;BME280;4181;43.416;24.598;2024-02-26T07:20:19;99572.81;;;12.78;100.00
8286;BME280;4181;43.416;24.598;2024-02-26T07:22:55;99569.84;;;12.69;100.00
8286;BME280;4181;43.416;24.598;2024-02-26T07:25:27;99566.81;;;12.76;100.00
8286;BME280;4181;43.416;24.598;2024-02-26T07:27:56;99559.91;;;12.84;100.00
8286;BME280;4181;43.416;24.598;2024-02-26T07:30:27;99564.53;;;12.98;100.00
8286;BME280;4181;43.416;24.598;2024-02-26T07:33:00;99576.53;;;13.12;100.00
8286;BME280;4181;43.416;24.598;2024-02-26T07:35:29;99572.72;;;13.08;100.00
8286;BME280;4181;43.416;24.598;2024-02-26T07:38:02;99585.91;;;12.96;100.00
8286;BME280;4181;43.416;24.598;2024-02-26T07:40:33;99573.91;;;12.77;100.00
8286;BME280;4181;43.416;24.598;2024-02-26T07:43:02;99597.75;;;12.71;100.00
8286;BME280;4181;43.416;24.598;2024-02-26T07:45:43;99598.06;;;12.55;100.00
8286;BME280;4181;43.416;24.598;2024-02-26T07:48:12;99599.97;;;12.59;100.00
8286;BME280;4181;43.416;24.598;2024-02-26T07:50:39;99599.69;;;12.61;100.00
8286;BME280;4181;43.416;24.598;2024-02-26T07:53:06;99589.78;;;12.80;100.00
8286;BME280;4181;43.416;24.598;2024-02-26T07:55:41;99588.91;;;13.00;100.00
8286;BME280;4181;43.416;24.598;2024-02-26T07:58:15;99584.78;;;13.07;100.00
8286;BME280;4181;43.416;24.598;2024-02-26T08:00:43;99593.22;;;13.16;100.00
8286;BME280;4181;43.416;24.598;2024-02-26T08:03:13;99587.13;;;13.29;100.00
8286;BME280;4181;43.416;24.598;2024-02-26T08:05:46;99589.09;;;13.23;100.00
8286;BME280;4181;43.416;24.598;2024-02-26T08:08:21;99588.84;;;13.20;100.00
8286;BME280;4181;43.416;24.598;2024-02-26T08:10:48;99590.16;;;13.27;100.00
8286;BME280;4181;43.416;24.598;2024-02-26T08:13:22;99596.09;;;13.44;100.00
8286;BME280;4181;43.416;24.598;2024-02-26T08:15:52;99587.22;;;13.57;100.00
8286;BME280;4181;43.416;24.598;2024-02-26T08:18:20;99586.16;;;13.58;100.00
8286;BME280;4181;43.416;24.598;2024-02-26T08:20:48;99597.06;;;13.68;100.00
8286;BME280;4181;43.416;24.598;2024-02-26T08:23:22;99607.44;;;13.71;100.00
8286;BME280;4181;43.416;24.598;2024-02-26T08:25:52;99617.84;;;13.74;100.00
8286;BME280;4181;43.416;24.598;2024-02-26T08:28:24;99619.69;;;13.84;100.00
8286;BME280;4181;43.416;24.598;2024-02-26T08:30:56;99627.66;;;13.80;100.00
8286;BME280;4181;43.416;24.598;2024-02-26T08:33:26;99632.00;;;13.86;100.00
8286;BME280;4181;43.416;24.598;2024-02-26T08:35:57;99636.38;;;13.87;100.00
8286;BME280;4181;43.416;24.598;2024-02-26T08:38:30;99639.41;;;13.86;100.00
8286;BME280;4181;43.416;24.598;2024-02-26T08:41:01;99646.50;;;13.92;100.00
8286;BME280;4181;43.416;24.598;2024-02-26T08:43:30;99640.13;;;14.02;100.00
8286;BME280;4181;43.416;24.598;2024-02-26T08:46:01;99637.03;;;14.13;100.00
8286;BME280;4181;43.416;24.598;2024-02-26T08:48:29;99631.81;;;14.12;100.00
8286;BME280;4181;43.416;24.598;2024-02-26T08:50:57;99634.00;;;14.15;100.00
8286;BME280;4181;43.416;24.598;2024-02-26T08:53:26;99642.22;;;14.15;100.00
8286;BME280;4181;43.416;24.598;2024-02-26T08:55:54;99633.59;;;14.31;100.00
8286;BME280;4181;43.416;24.598;2024-02-26T08:58:27;99647.56;;;14.35;100.00
8286;BME280;4181;43.416;24.598;2024-02-26T09:00:57;99648.56;;;14.44;100.00
8286;BME280;4181;43.416;24.598;2024-02-26T09:03:26;99654.50;;;14.56;100.00
8286;BME280;4181;43.416;24.598;2024-02-26T09:06:04;99635.38;;;14.46;100.00
8286;BME280;4181;43.416;24.598;2024-02-26T09:08:33;99651.72;;;14.61;100.00
8286;BME280;4181;43.416;24.598;2024-02-26T09:11:05;99645.88;;;14.67;100.00
8286;BME280;4181;43.416;24.598;2024-02-26T09:13:35;99651.84;;;14.74;100.00
8286;BME280;4181;43.416;24.598;2024-02-26T09:16:04;99658.53;;;14.68;100.00
8286;BME280;4181;43.416;24.598;2024-02-26T09:18:32;99650.28;;;14.68;100.00
8286;BME280;4181;43.416;24.598;2024-02-26T09:21:04;99654.25;;;14.81;100.00
8286;BME280;4181;43.416;24.598;2024-02-26T09:23:37;99654.75;;;14.88;100.00
8286;BME280;4181;43.416;24.598;2024-02-26T09:26:06;99655.44;;;14.75;100.00
8286;BME280;4181;43.416;24.598;2024-02-26T09:28:43;99658.22;;;14.70;100.00
8286;BME280;4181;43.416;24.598;2024-02-26T09:31:12;99646.50;;;14.88;100.00
8286;BME280;4181;43.416;24.598;2024-02-26T09:33:40;99646.22;;;14.89;100.00
8286;BME280;4181;43.416;24.598;2024-02-26T09:36:08;99631.34;;;15.14;100.00
8286;BME280;4181;43.416;24.598;2024-02-26T09:38:39;99629.00;;;15.26;100.00
8286;BME280;4181;43.416;24.598;2024-02-26T09:41:15;99640.16;;;15.40;100.00
8286;BME280;4181;43.416;24.598;2024-02-26T09:43:48;99637.09;;;15.41;100.00
8286;BME280;4181;43.416;24.598;2024-02-26T09:46:23;99640.19;;;15.58;100.00
8286;BME280;4181;43.416;24.598;2024-02-26T09:48:59;99633.84;;;15.58;100.00
8286;BME280;4181;43.416;24.598;2024-02-26T09:51:26;99633.84;;;15.76;100.00
8286;BME280;4181;43.416;24.598;2024-02-26T09:54:02;99637.44;;;15.95;100.00
8286;BME280;4181;43.416;24.598;2024-02-26T09:56:38;99631.69;;;16.10;100.00
8286;BME280;4181;43.416;24.598;2024-02-26T09:59:14;99639.72;;;16.58;100.00
8286;BME280;4181;43.416;24.598;2024-02-26T10:01:50;99631.94;;;16.92;100.00
8286;BME280;4181;43.416;24.598;2024-02-26T10:04:22;99631.22;;;17.00;100.00
8286;BME280;4181;43.416;24.598;2024-02-26T10:06:52;99631.00;;;17.10;100.00
8286;BME280;4181;43.416;24.598;2024-02-26T10:09:20;99629.97;;;17.06;100.00
8286;BME280;4181;43.416;24.598;2024-02-26T10:11:57;99627.22;;;17.19;100.00
8286;BME280;4181;43.416;24.598;2024-02-26T10:14:27;99624.78;;;17.31;100.00
8286;BME280;4181;43.416;24.598;2024-02-26T10:16:57;99618.84;;;17.38;100.00
8286;BME280;4181;43.416;24.598;2024-02-26T10:19:30;99618.31;;;17.63;100.00
8286;BME280;4181;43.416;24.598;2024-02-26T10:22:00;99610.34;;;17.75;100.00
8286;BME280;4181;43.416;24.598;2024-02-26T10:24:44;99610.19;;;18.16;100.00
8286;BME280;4181;43.416;24.598;2024-02-26T10:27:20;99610.88;;;18.43;100.00
8286;BME280;4181;43.416;24.598;2024-02-26T10:29:47;99612.63;;;18.61;100.00
8286;BME280;4181;43.416;24.598;2024-02-26T10:32:20;99605.53;;;18.69;100.00
8286;BME280;4181;43.416;24.598;2024-02-26T10:34:58;99609.69;;;18.36;100.00
8286;BME280;4181;43.416;24.598;2024-02-26T10:37:24;99604.91;;;18.28;100.00
8286;BME280;4181;43.416;24.598;2024-02-26T10:39:51;99605.97;;;17.96;100.00
8286;BME280;4181;43.416;24.598;2024-02-26T10:42:26;99603.81;;;17.93;100.00
8286;BME280;4181;43.416;24.598;2024-02-26T10:45:04;99610.09;;;17.85;100.00
8286;BME280;4181;43.416;24.598;2024-02-26T10:47:32;99604.78;;;17.89;100.00
8286;BME280;4181;43.416;24.598;2024-02-26T10:50:04;99608.47;;;17.84;100.00
8286;BME280;4181;43.416;24.598;2024-02-26T10:52:32;99608.25;;;17.94;100.00
8286;BME280;4181;43.416;24.598;2024-02-26T10:55:06;99593.81;;;17.97;100.00
8286;BME280;4181;43.416;24.598;2024-02-26T10:57:37;99589.84;;;17.90;100.00
8286;BME280;4181;43.416;24.598;2024-02-26T11:00:09;99592.91;;;17.88;100.00
8286;BME280;4181;43.416;24.598;2024-02-26T11:02:41;99589.88;;;17.76;100.00
8286;BME280;4181;43.416;24.598;2024-02-26T11:05:11;99586.19;;;17.81;100.00
8286;BME280;4181;43.416;24.598;2024-02-26T11:07:41;99590.38;;;17.78;100.00
8286;BME280;4181;43.416;24.598;2024-02-26T11:10:11;99584.31;;;17.90;100.00
8286;BME280;4181;43.416;24.598;2024-02-26T11:12:44;99587.53;;;18.05;100.00
8286;BME280;4181;43.416;24.598;2024-02-26T11:15:12;99584.56;;;18.02;100.00
8286;BME280;4181;43.416;24.598;2024-02-26T11:17:48;99579.38;;;17.64;100.00
8286;BME280;4181;43.416;24.598;2024-02-26T11:20:23;99584.47;;;17.71;100.00
8286;BME280;4181;43.416;24.598;2024-02-26T11:25:48;99576.34;;;17.88;100.00
8286;BME280;4181;43.416;24.598;2024-02-26T11:28:19;99573.19;;;17.81;100.00
8286;BME280;4181;43.416;24.598;2024-02-26T11:30:51;99565.78;;;17.68;100.00
8286;BME280;4181;43.416;24.598;2024-02-26T11:33:26;99567.50;;;17.78;100.00
8286;BME280;4181;43.416;24.598;2024-02-26T11:35:55;99559.78;;;17.88;100.00
8286;BME280;4181;43.416;24.598;2024-02-26T11:38:26;99561.78;;;17.96;100.00
8286;BME280;4181;43.416;24.598;2024-02-26T11:40:58;99557.84;;;17.89;100.00
8286;BME280;4181;43.416;24.598;2024-02-26T11:44:01;99559.09;;;18.05;100.00
8286;BME280;4181;43.416;24.598;2024-02-26T11:46:39;99565.81;;;18.12;100.00
8286;BME280;4181;43.416;24.598;2024-02-26T11:49:32;99564.09;;;18.25;100.00
8286;BME280;4181;43.416;24.598;2024-02-26T11:52:06;99556.13;;;18.23;100.00
8286;BME280;4181;43.416;24.598;2024-02-26T11:54:52;99546.72;;;18.24;100.00
8286;BME280;4181;43.416;24.598;2024-02-26T11:57:39;99542.84;;;18.25;100.00
8286;BME280;4181;43.416;24.598;2024-02-26T12:00:16;99540.53;;;18.41;100.00
8286;BME280;4181;43.416;24.598;2024-02-26T12:02:50;99541.94;;;18.38;100.00
8286;BME280;4181;43.416;24.598;2024-02-26T12:05:23;99540.00;;;18.39;100.00
8286;BME280;4181;43.416;24.598;2024-02-26T12:08:07;99543.44;;;18.44;100.00
8286;BME280;4181;43.416;24.598;2024-02-26T12:10:46;99540.69;;;18.44;100.00
8286;BME280;4181;43.416;24.598;2024-02-26T12:13:31;99547.22;;;18.48;100.00
8286;BME280;4181;43.416;24.598;2024-02-26T12:16:06;99547.28;;;18.57;100.00
8286;BME280;4181;43.416;24.598;2024-02-26T12:18:34;99541.94;;;18.60;100.00
8286;BME280;4181;43.416;24.598;2024-02-26T12:21:10;99538.88;;;18.70;100.00
8286;BME280;4181;43.416;24.598;2024-02-26T12:26:36;99541.88;;;18.82;100.00
8286;BME280;4181;43.416;24.598;2024-02-26T12:29:06;99530.50;;;18.92;100.00
8286;BME280;4181;43.416;24.598;2024-02-26T12:31:34;99532.13;;;18.93;100.00
8286;BME280;4181;43.416;24.598;2024-02-26T12:34:06;99534.75;;;18.99;100.00
8286;BME280;4181;43.416;24.598;2024-02-26T12:36:34;99529.41;;;19.02;100.00
8286;BME280;4181;43.416;24.598;2024-02-26T12:39:04;99538.19;;;19.04;100.00
8286;BME280;4181;43.416;24.598;2024-02-26T12:41:37;99542.75;;;19.09;100.00
8286;BME280;4181;43.416;24.598;2024-02-26T12:44:09;99539.47;;;19.07;100.00
8286;BME280;4181;43.416;24.598;2024-02-26T12:46:44;99547.31;;;19.13;100.00
8286;BME280;4181;43.416;24.598;2024-02-26T12:49:30;99545.38;;;19.14;100.00
8286;BME280;4181;43.416;24.598;2024-02-26T12:51:57;99539.19;;;19.17;100.00
8286;BME280;4181;43.416;24.598;2024-02-26T12:54:31;99546.34;;;19.26;100.00
8286;BME280;4181;43.416;24.598;2024-02-26T12:57:01;99546.84;;;19.28;100.00
8286;BME280;4181;43.416;24.598;2024-02-26T12:59:29;99545.06;;;19.24;100.00
8286;BME280;4181;43.416;24.598;2024-02-26T13:01:58;99538.59;;;19.37;100.00
8286;BME280;4181;43.416;24.598;2024-02-26T13:04:34;99541.72;;;19.44;100.00
8286;BME280;4181;43.416;24.598;2024-02-26T13:07:04;99539.75;;;19.36;100.00
8286;BME280;4181;43.416;24.598;2024-02-26T13:09:34;99541.19;;;19.33;100.00
8286;BME280;4181;43.416;24.598;2024-02-26T13:12:05;99540.22;;;19.38;100.00
8286;BME280;4181;43.416;24.598;2024-02-26T13:14:46;99545.59;;;19.43;100.00
8286;BME280;4181;43.416;24.598;2024-02-26T13:17:24;99540.88;;;19.43;100.00
8286;BME280;4181;43.416;24.598;2024-02-26T13:19:52;99534.69;;;19.38;100.00
8286;BME280;4181;43.416;24.598;2024-02-26T13:22:21;99546.41;;;19.43;100.00
8286;BME280;4181;43.416;24.598;2024-02-26T13:24:59;99554.06;;;19.38;100.00
8286;BME280;4181;43.416;24.598;2024-02-26T13:27:26;99551.59;;;19.36;100.00
8286;BME280;4181;43.416;24.598;2024-02-26T13:30:23;99556.19;;;19.41;100.00
8286;BME280;4181;43.416;24.598;2024-02-26T13:32:54;99551.78;;;19.40;100.00
8286;BME280;4181;43.416;24.598;2024-02-26T13:35:32;99544.63;;;19.39;100.00
8286;BME280;4181;43.416;24.598;2024-02-26T13:38:07;99547.41;;;19.39;100.00
8286;BME280;4181;43.416;24.598;2024-02-26T13:40:36;99546.41;;;19.35;100.00
8286;BME280;4181;43.416;24.598;2024-02-26T13:43:03;99543.63;;;19.35;100.00
8286;BME280;4181;43.416;24.598;2024-02-26T13:45:34;99545.13;;;19.32;100.00